Pagrindinis puslapis
METAR-TAF:

METAR-TAF

Oro uostai :

Albenga, Italija

platuma: 44-03N, ilguma: 008-07E, Aukštis: 45 m

Dabartinis oras

Ataskaita buvo paskelbta 4 valandos ir 33 minutes, ne 16:50 UTC
Ramus vėjas
Temperatūra 10°C
Drėgmė 82%
Slėgis 1017 hPa
Matomumas 10 km arba daugiau
Su prošvaistėmis ne aukštis 8000 ft

METAR: LIMG 271650Z 00000KT 9999 BKN080 10/07 Q1017

Laikas: 22:23 (21:23 UTC)


TAF: trūkstamas

Orai ataskaitas ir orų prognozės (METAR, TAF).

turimą stotys yra geltonos ir raudonos taškus žemėlapyje.

Perkelti pele per norėdami pamatyti stoties vardą.

Tada spustelėkite, norėdami matyti oro stebėjimo ir prognozės.

Norėdami pakeisti žemėlapį: spustelėkite ant žalios mygtukų su juodo kryžiaus žemyn,; žalią mygtuką su brūkšneliu, jei norite nutolinti; arba žalių rodyklių gretimoms žemėlapius.


METAR-TAF: